Берелех

Карта отелей и гостиниц, располагающихся рядом с аэропортом Берелех :

Берелех
Сусуман
Магаданская область 62° 45' 51.3216" N, 148° 8' 43.0404" E
Берелех
Сусуман
Магаданская область 62° 45' 51.3216" N, 148° 8' 43.0404" E
Код аэродрома ИКАО
UHMH
Код аэродрома RU
УХМХ
Координаты
N62.76426° E148.14529°
Превышение над уровнем моря
635
Основная полоса
06/24
Курс магнитный
056,9/236,9
Длина основной ВПП
923
Ширина основной ВПП
40
Покрытие основной ВПП
Твёрдое
Освещение ВПП
Нет
Тип: 
Аэродром
Класс аэродрома: 
Принадлежность: 
ГА
Статус: 
Действующий
Сайт: 
E-mail аэродрома: 
Страна: 
Россия
Регион: 
Магаданская область
Город: 
Сусуман
Дополнительная информация: 
Горный. Владелец ПП: нет данных. Обеспечивает рейс МУ1096 "Сусуман - Магадан" (ВС Ан-28) по 1*3*5** с 09.01 15:40 17:00 СИЛА.

Найти трансфер

С помощью этой формы Вы можете найти трансфер из аэропорта Берелех в город, аэропорт или вокзал:

Карта места

Javascript is required to view this map.

Погода в аэропортах:

Авиационная погода в Вадсё

Регион: 
Погода METAR: 
ENVD 050750Z 27008KT 9999 VCSH FEW022 13/09 Q1009
Время наблюдения
2021-08-05T07:50:00Z
Температура C
13.0
Точка росы
9.0
Направление ветра
270
Скорость ветра (узлы)
8
Метео видимость
6.21
Явления погоды
VCSH
Условия полета
VFR

Авиационная погода в Кадале

Регион: 
Погода METAR: 
UIAA 050800Z 29005MPS 2900 FU SCT030 22/13 Q1002 R29/CLRD70 NOSIG RMK QFE693/0925
Время наблюдения
2021-08-05T08:00:00Z
Температура C
22.0
Точка росы
13.0
Направление ветра
290
Скорость ветра (узлы)
10
Метео видимость
1.8
Явления погоды
FU
Условия полета
IFR
Аэропорт подробнее: 

Авиационная погода в Братске

Регион: 
Погода METAR: 
UIBB 050800Z 31002MPS 1800 R30/1800N FU BKN027CB 21/14 Q1004 R30/CLRD60 NOSIG RMK QFE711/0948
Время наблюдения
2021-08-05T08:00:00Z
Температура C
21.0
Точка росы
14.0
Направление ветра
310
Скорость ветра (узлы)
4
Метео видимость
1.12
Явления погоды
FU
Условия полета
IFR
Аэропорт подробнее: 

Авиационная погода в Нижневартовске

Регион: 
Погода METAR: 
USNN 050800Z 36002MPS 3200 FU BKN019 19/16 Q1010 R03/0///65 NOSIG RMK QFE754
Время наблюдения
2021-08-05T08:00:00Z
Температура C
19.0
Точка росы
16.0
Направление ветра
360
Скорость ветра (узлы)
4
Метео видимость
1.99
Явления погоды
FU
Условия полета
IFR
Аэропорт подробнее: